createdAt,value
2022-10-22T00:01:14.605Z,90.15
2022-10-22T00:11:20.706Z,90.85
2022-10-22T00:21:23.995Z,90.76
2022-10-22T00:31:28.488Z,91.58
2022-10-22T00:41:31.544Z,91.87
2022-10-22T00:51:37.105Z,91.59
2022-10-22T01:01:40.281Z,91.81
2022-10-22T01:11:55.548Z,92.38
2022-10-22T01:22:06.007Z,91.78
2022-10-22T01:32:15.561Z,91.59
2022-10-22T01:42:18.658Z,92.15
2022-10-22T01:52:32.989Z,94.14
2022-10-22T02:02:42.204Z,94.54
2022-10-22T02:12:49.920Z,94.07
2022-10-22T02:22:53.392Z,94.23
2022-10-22T02:33:03.693Z,93.74
2022-10-22T02:43:07.418Z,94.13
2022-10-22T02:53:11.583Z,93.65
2022-10-22T03:03:14.374Z,94.79
2022-10-22T03:13:18.652Z,95.04
2022-10-22T03:23:21.560Z,95.47
2022-10-22T03:33:26.120Z,95.20
2022-10-22T03:43:29.432Z,94.29
2022-10-22T03:53:33.713Z,93.65
2022-10-22T04:03:37.211Z,94.28
2022-10-22T04:13:41.757Z,94.96
2022-10-22T04:23:46.323Z,94.78
2022-10-22T04:33:53.666Z,94.67
2022-10-22T04:43:58.073Z,94.62
2022-10-22T04:54:02.614Z,94.15
2022-10-22T05:04:08.252Z,93.07
2022-10-22T05:14:13.506Z,91.20
2022-10-22T05:24:16.572Z,90.10
2022-10-22T05:34:20.982Z,90.33
2022-10-22T05:44:23.817Z,90.10
2022-10-22T05:54:28.060Z,89.82
2022-10-22T06:04:30.926Z,87.47
2022-10-22T06:14:35.355Z,87.36
2022-10-22T06:24:40.452Z,87.98
2022-10-22T06:34:48.329Z,87.35
2022-10-22T06:44:51.357Z,87.50
2022-10-22T06:54:55.676Z,87.63
2022-10-22T07:04:58.694Z,87.66
2022-10-22T07:15:02.861Z,89.03
2022-10-22T07:25:07.467Z,89.08
2022-10-22T07:35:12.082Z,88.03
2022-10-22T07:45:14.935Z,87.25
2022-10-22T07:55:19.108Z,84.49
2022-10-22T08:05:21.923Z,83.50
2022-10-22T08:15:27.293Z,83.50
2022-10-22T08:25:30.323Z,82.96
2022-10-22T08:35:34.464Z,81.83
2022-10-22T08:45:42.167Z,80.75
2022-10-22T08:55:47.042Z,81.03
2022-10-22T09:06:02.805Z,79.97
2022-10-22T09:16:17.305Z,79.63
2022-10-22T09:26:22.626Z,79.53
2022-10-22T09:36:30.479Z,78.85
2022-10-22T09:46:44.118Z,79.12
2022-10-22T09:57:03.478Z,78.50
2022-10-22T10:07:17.211Z,78.97
2022-10-22T10:17:29.079Z,79.06
2022-10-22T10:27:38.099Z,79.11
2022-10-22T10:37:50.519Z,77.06
2022-10-22T10:48:09.354Z,74.27
2022-10-22T10:58:23.052Z,76.03
2022-10-22T11:08:31.223Z,77.99
2022-10-22T11:18:40.365Z,79.52
2022-10-22T11:28:46.971Z,78.14
2022-10-22T11:38:52.254Z,78.29
2022-10-22T11:49:19.165Z,79.28
2022-10-22T11:59:39.968Z,77.51
2022-10-22T12:09:43.332Z,75.76
2022-10-22T12:19:50.176Z,75.33
2022-10-22T12:29:56.470Z,73.75
2022-10-22T12:40:01.851Z,70.50
2022-10-22T12:50:05.677Z,67.90
2022-10-22T13:00:22.261Z,65.94
2022-10-22T13:10:27.427Z,63.78
2022-10-22T13:20:32.658Z,67.72
2022-10-22T13:30:37.731Z,66.81
2022-10-22T13:40:42.351Z,65.98
2022-10-22T13:50:45.580Z,64.80
2022-10-22T14:00:52.470Z,62.47
2022-10-22T14:10:55.864Z,63.92
2022-10-22T14:21:04.853Z,64.15
2022-10-22T14:31:09.731Z,64.56
2022-10-22T14:41:20.839Z,64.44
2022-10-22T14:51:24.048Z,65.83
2022-10-22T15:01:28.238Z,65.52
2022-10-22T15:11:31.240Z,66.96
2022-10-22T15:21:35.484Z,67.52
2022-10-22T15:31:47.906Z,68.21
2022-10-22T15:41:52.951Z,69.09
2022-10-22T15:51:56.919Z,69.54
2022-10-22T16:02:01.567Z,70.68
2022-10-22T16:12:04.544Z,71.94
2022-10-22T16:22:11.571Z,72.57
2022-10-22T16:32:16.209Z,72.88
2022-10-22T16:42:20.604Z,73.69
2022-10-22T16:52:23.707Z,74.91
2022-10-22T17:02:28.018Z,75.07
2022-10-22T17:12:35.156Z,75.95
2022-10-22T17:22:39.496Z,75.51
2022-10-22T17:32:42.430Z,76.30
2022-10-22T17:42:46.911Z,76.84
2022-10-22T17:52:50.596Z,77.86
2022-10-22T18:02:54.947Z,76.34
2022-10-22T18:12:57.715Z,76.54
2022-10-22T18:23:03.628Z,76.87
2022-10-22T18:33:06.646Z,77.63
2022-10-22T18:43:11.043Z,77.07
2022-10-22T18:53:16.558Z,76.54
2022-10-22T19:03:20.993Z,76.92
2022-10-22T19:13:25.721Z,77.27
2022-10-22T19:23:31.300Z,78.27
2022-10-22T19:33:35.811Z,78.18
2022-10-22T19:43:40.035Z,77.42
2022-10-22T19:53:43.096Z,78.15
2022-10-22T20:03:47.728Z,79.78
2022-10-22T20:13:53.454Z,79.43
2022-10-22T20:23:58.660Z,79.64
2022-10-22T20:34:02.788Z,79.86
2022-10-22T20:44:08.431Z,79.94
2022-10-22T20:54:12.110Z,79.10
2022-10-22T21:04:17.998Z,79.60
2022-10-22T21:14:23.160Z,79.52
2022-10-22T21:24:27.679Z,79.92
2022-10-22T21:34:33.251Z,80.60
2022-10-22T21:44:40.223Z,80.02
2022-10-22T21:54:43.262Z,79.79
2022-10-22T22:04:47.931Z,80.13
2022-10-22T22:14:50.699Z,79.92
2022-10-22T22:24:55.404Z,80.03
2022-10-22T22:34:58.426Z,81.35
2022-10-22T22:45:02.966Z,80.84
2022-10-22T22:55:06.877Z,81.21
2022-10-22T23:05:11.494Z,81.50
2022-10-22T23:15:14.517Z,81.16
2022-10-22T23:25:19.001Z,79.98
2022-10-22T23:35:22.314Z,79.74
2022-10-22T23:45:26.515Z,79.16
2022-10-22T23:55:29.471Z,79.05
